createdAt,value
2022-09-21T00:03:47.955Z,98650.13
2022-09-21T00:07:50.034Z,98643.50
2022-09-21T00:11:56.347Z,98649.91
2022-09-21T00:16:01.090Z,98649.13
2022-09-21T00:20:05.990Z,98662.97
2022-09-21T00:24:08.267Z,98652.03
2022-09-21T00:28:10.823Z,98652.00
2022-09-21T00:32:13.027Z,98660.28
2022-09-21T00:36:18.202Z,98657.34
2022-09-21T00:40:20.175Z,98658.69
2022-09-21T00:44:22.155Z,98651.19
2022-09-21T00:48:24.371Z,98650.66
2022-09-21T00:52:32.586Z,98650.69
2022-09-21T00:56:37.357Z,98637.34
2022-09-21T01:00:44.366Z,98647.94
2022-09-21T01:04:48.291Z,98647.06
2022-09-21T01:08:58.022Z,98644.13
2022-09-21T01:13:30.370Z,98643.09
2022-09-21T01:17:40.982Z,98642.25
2022-09-21T01:22:20.426Z,98648.88
2022-09-21T01:26:54.350Z,98644.69
2022-09-21T01:31:00.189Z,98649.13
2022-09-21T01:35:10.919Z,98643.22
2022-09-21T01:39:15.335Z,98654.56
2022-09-21T01:43:25.444Z,98652.41
2022-09-21T01:47:31.575Z,98650.19
2022-09-21T01:51:35.075Z,98646.78
2022-09-21T01:55:46.399Z,98648.94
2022-09-21T01:59:56.339Z,98653.72
2022-09-21T02:04:04.729Z,98650.81
2022-09-21T02:08:08.741Z,98649.41
2022-09-21T02:12:18.951Z,98654.19
2022-09-21T02:16:48.510Z,98650.19
2022-09-21T02:20:57.598Z,98647.84
2022-09-21T02:25:29.193Z,98645.66
2022-09-21T02:30:09.629Z,98656.22
2022-09-21T02:34:30.610Z,98642.91
2022-09-21T02:38:49.455Z,98645.50
2022-09-21T02:43:12.565Z,98657.25
2022-09-21T02:47:31.615Z,98650.78
2022-09-21T02:51:39.736Z,98656.59
2022-09-21T02:55:44.865Z,98660.06
2022-09-21T02:59:47.060Z,98655.03
2022-09-21T03:03:49.461Z,98659.81
2022-09-21T03:07:51.502Z,98653.16
2022-09-21T03:11:54.174Z,98657.63
2022-09-21T03:16:05.337Z,98650.66
2022-09-21T03:20:08.102Z,98653.25
2022-09-21T03:24:10.094Z,98647.94
2022-09-21T03:28:13.571Z,98647.84
2022-09-21T03:32:15.950Z,98652.31
2022-09-21T03:36:22.122Z,98663.66
2022-09-21T03:40:27.634Z,98665.16
2022-09-21T03:44:29.677Z,98671.50
2022-09-21T03:48:32.899Z,98675.31
2022-09-21T03:52:36.402Z,98676.59
2022-09-21T03:56:38.701Z,98684.81
2022-09-21T04:00:40.693Z,98685.88
2022-09-21T04:04:44.323Z,98699.06
2022-09-21T04:08:46.647Z,98699.88
2022-09-21T04:12:49.134Z,98699.88
2022-09-21T04:16:52.147Z,98697.53
2022-09-21T04:20:54.747Z,98692.25
2022-09-21T04:24:56.705Z,98705.09
2022-09-21T04:28:59.706Z,98713.88
2022-09-21T04:33:01.641Z,98713.47
2022-09-21T04:37:03.661Z,98711.66
2022-09-21T04:41:05.692Z,98720.38
2022-09-21T04:45:08.474Z,98712.22
2022-09-21T04:49:10.866Z,98717.97
2022-09-21T04:53:13.454Z,98723.13
2022-09-21T04:57:15.815Z,98718.25
2022-09-21T05:01:17.911Z,98729.88
2022-09-21T05:05:20.407Z,98719.50
2022-09-21T05:09:41.131Z,98726.81
2022-09-21T05:13:43.173Z,98727.81
2022-09-21T05:17:45.338Z,98727.19
2022-09-21T05:21:47.825Z,98732.13
2022-09-21T05:25:51.161Z,98731.97
2022-09-21T05:29:53.562Z,98748.59
2022-09-21T05:34:16.512Z,98749.25
2022-09-21T05:38:19.958Z,98745.88
2022-09-21T05:42:22.370Z,98750.50
2022-09-21T05:46:43.218Z,98756.03
2022-09-21T05:51:05.240Z,98766.59
2022-09-21T05:55:18.905Z,98768.63
2022-09-21T05:59:41.824Z,98784.22
2022-09-21T06:03:44.146Z,98784.31
2022-09-21T06:07:46.372Z,98779.84
2022-09-21T06:11:48.731Z,98777.06
2022-09-21T06:15:50.883Z,98795.56
2022-09-21T06:19:54.171Z,98790.56
2022-09-21T06:23:56.618Z,98786.09
2022-09-21T06:28:04.573Z,98785.75
2022-09-21T06:32:06.662Z,98792.44
2022-09-21T06:36:08.780Z,98790.63
2022-09-21T06:40:10.976Z,98799.06
2022-09-21T06:44:13.121Z,98795.13
2022-09-21T06:48:15.970Z,98801.56
2022-09-21T06:52:17.961Z,98794.53
2022-09-21T06:56:20.231Z,98795.28
2022-09-21T07:00:22.419Z,98807.09
2022-09-21T07:04:25.360Z,98804.13
2022-09-21T07:12:51.748Z,98804.22
2022-09-21T07:16:53.934Z,98815.13
2022-09-21T07:20:56.090Z,98819.91
2022-09-21T07:25:00.217Z,98830.59
2022-09-21T07:29:02.364Z,98829.63
2022-09-21T07:33:05.422Z,98839.50
2022-09-21T07:37:07.491Z,98838.38
2022-09-21T07:41:15.492Z,98848.78
2022-09-21T07:45:17.815Z,98871.94
2022-09-21T07:49:20.203Z,98885.22
2022-09-21T07:53:22.423Z,98882.91
2022-09-21T07:57:43.524Z,98889.59
2022-09-21T08:01:45.560Z,98889.34
2022-09-21T08:05:47.751Z,98880.94
2022-09-21T08:09:51.137Z,98891.03
2022-09-21T08:13:55.259Z,98888.47
2022-09-21T08:17:58.808Z,98893.97
2022-09-21T08:22:01.406Z,98875.41
2022-09-21T08:26:08.260Z,98883.47
2022-09-21T08:30:13.835Z,98883.56
2022-09-21T08:34:16.520Z,98882.59
2022-09-21T08:38:18.563Z,98885.88
2022-09-21T08:42:33.021Z,98904.34
2022-09-21T08:46:37.376Z,98905.44
2022-09-21T08:50:51.139Z,98903.75
2022-09-21T08:55:25.729Z,98911.94
2022-09-21T08:59:28.447Z,98901.56
2022-09-21T09:04:03.910Z,98900.81
2022-09-21T09:08:20.074Z,98903.81
2022-09-21T09:12:57.988Z,98907.91
2022-09-21T09:17:19.449Z,98908.22
2022-09-21T09:21:32.190Z,98907.59
2022-09-21T09:25:40.006Z,98901.81
2022-09-21T09:30:03.750Z,98899.53
2022-09-21T09:34:16.912Z,98892.22
2022-09-21T09:38:37.569Z,98888.63
2022-09-21T09:42:52.615Z,98873.66
2022-09-21T09:47:22.442Z,98885.19
2022-09-21T09:51:26.907Z,98893.75
2022-09-21T09:55:51.056Z,98878.16
2022-09-21T10:00:02.306Z,98884.97
2022-09-21T10:04:17.618Z,98873.59
2022-09-21T10:08:39.313Z,98876.69
2022-09-21T10:12:46.643Z,98878.06
2022-09-21T10:16:53.426Z,98868.00
2022-09-21T10:21:20.284Z,98873.59
2022-09-21T10:25:22.813Z,98865.06
2022-09-21T10:29:25.429Z,98866.47
2022-09-21T10:33:27.487Z,98864.94
2022-09-21T10:37:37.588Z,98851.19
2022-09-21T10:41:39.827Z,98851.41
2022-09-21T10:45:53.999Z,98856.25
2022-09-21T10:50:00.333Z,98851.72
2022-09-21T10:54:09.261Z,98858.72
2022-09-21T10:58:13.648Z,98853.34
2022-09-21T11:02:31.302Z,98852.78
2022-09-21T11:06:47.625Z,98866.44
2022-09-21T11:11:25.448Z,98866.25
2022-09-21T11:16:01.471Z,98864.84
2022-09-21T11:20:14.693Z,98857.72
2022-09-21T11:24:45.771Z,98848.25
2022-09-21T11:29:15.477Z,98839.47
2022-09-21T11:33:42.849Z,98855.88
2022-09-21T11:37:54.946Z,98851.41
2022-09-21T11:42:14.603Z,98866.19
2022-09-21T11:46:38.644Z,98854.78
2022-09-21T11:51:15.123Z,98852.09
2022-09-21T11:55:36.463Z,98847.31
2022-09-21T12:00:17.002Z,98855.56
2022-09-21T12:04:44.664Z,98864.00
2022-09-21T12:13:50.620Z,98862.69
2022-09-21T12:18:04.681Z,98861.91
2022-09-21T12:22:14.081Z,98849.16
2022-09-21T12:26:32.073Z,98840.75
2022-09-21T12:30:39.292Z,98841.91
2022-09-21T12:34:46.418Z,98830.63
2022-09-21T12:38:53.053Z,98835.88
2022-09-21T12:43:18.382Z,98839.84
2022-09-21T12:47:31.064Z,98825.56
2022-09-21T12:51:41.841Z,98813.97
2022-09-21T12:56:07.694Z,98815.22
2022-09-21T13:00:22.361Z,98822.03
2022-09-21T13:05:02.224Z,98825.06
2022-09-21T13:09:09.966Z,98830.03
2022-09-21T13:13:39.936Z,98824.28
2022-09-21T13:17:42.161Z,98822.84
2022-09-21T13:21:44.399Z,98822.06
2022-09-21T13:25:59.192Z,98814.56
2022-09-21T13:30:32.677Z,98813.16
2022-09-21T13:34:35.730Z,98809.16
2022-09-21T13:38:41.311Z,98810.47
2022-09-21T13:42:46.703Z,98821.09
2022-09-21T13:46:52.258Z,98813.97
2022-09-21T13:50:58.053Z,98814.91
2022-09-21T13:55:04.378Z,98815.88
2022-09-21T13:59:18.007Z,98811.88
2022-09-21T14:03:24.901Z,98819.34
2022-09-21T14:07:32.777Z,98822.72
2022-09-21T14:11:39.404Z,98829.84
2022-09-21T14:15:42.445Z,98827.31
2022-09-21T14:19:44.567Z,98830.31
2022-09-21T14:24:23.008Z,98828.41
2022-09-21T14:28:35.335Z,98824.75
2022-09-21T14:32:51.065Z,98830.47
2022-09-21T14:36:58.376Z,98824.91
2022-09-21T14:41:08.045Z,98833.00
2022-09-21T14:45:18.206Z,98830.13
2022-09-21T14:49:32.427Z,98832.50
2022-09-21T14:53:58.264Z,98831.34
2022-09-21T14:58:10.098Z,98843.91
2022-09-21T15:02:21.141Z,98836.38
2022-09-21T15:07:11.159Z,98844.63
2022-09-21T15:11:27.702Z,98835.44
2022-09-21T15:15:37.170Z,98843.50
2022-09-21T15:19:39.381Z,98844.91
2022-09-21T15:23:41.461Z,98834.34
2022-09-21T15:27:46.884Z,98854.47
2022-09-21T15:31:50.817Z,98846.84
2022-09-21T15:35:54.706Z,98851.28
2022-09-21T15:40:06.336Z,98854.31
2022-09-21T15:44:16.753Z,98850.06
2022-09-21T15:48:21.071Z,98851.19
2022-09-21T15:52:37.914Z,98843.25
2022-09-21T15:56:43.766Z,98849.13
2022-09-21T16:00:55.068Z,98859.06
2022-09-21T16:04:57.232Z,98864.22
2022-09-21T16:08:59.356Z,98874.88
2022-09-21T16:13:37.610Z,98876.19
2022-09-21T16:17:58.680Z,98888.91
2022-09-21T16:22:04.885Z,98884.09
2022-09-21T16:26:07.010Z,98882.16
2022-09-21T16:30:38.240Z,98891.50
2022-09-21T16:34:40.393Z,98886.94
2022-09-21T16:38:43.138Z,98890.31
2022-09-21T16:42:46.236Z,98886.91
2022-09-21T16:46:51.628Z,98897.81
2022-09-21T16:50:54.279Z,98895.31
2022-09-21T16:54:58.814Z,98902.03
2022-09-21T16:59:04.255Z,98901.69
2022-09-21T17:03:06.506Z,98897.31
2022-09-21T17:07:12.596Z,98915.53
2022-09-21T17:11:21.997Z,98915.06
2022-09-21T17:15:25.318Z,98920.47
2022-09-21T17:19:27.471Z,98927.94
2022-09-21T17:23:29.996Z,98920.66
2022-09-21T17:27:32.125Z,98913.22
2022-09-21T17:31:35.157Z,98923.84
2022-09-21T17:35:39.538Z,98919.97
2022-09-21T17:39:42.644Z,98929.78
2022-09-21T17:43:56.572Z,98931.22
2022-09-21T17:47:58.822Z,98927.00
2022-09-21T17:52:19.808Z,98929.53
2022-09-21T17:56:40.241Z,98938.16
2022-09-21T18:00:57.126Z,98944.91
2022-09-21T18:05:04.570Z,98942.78
2022-09-21T18:09:07.175Z,98949.78
2022-09-21T18:13:33.722Z,98965.09
2022-09-21T18:18:13.185Z,98957.88
2022-09-21T18:22:28.868Z,98956.50
2022-09-21T18:26:33.220Z,98967.03
2022-09-21T18:30:39.374Z,98964.38
2022-09-21T18:34:55.903Z,98969.72
2022-09-21T18:39:23.254Z,98975.38
2022-09-21T18:43:28.829Z,98979.91
2022-09-21T18:47:40.490Z,98982.63
2022-09-21T18:52:03.916Z,98990.16
2022-09-21T18:56:08.376Z,98999.25
2022-09-21T19:00:12.228Z,99000.06
2022-09-21T19:04:17.574Z,99001.13
2022-09-21T19:08:35.011Z,99008.88
2022-09-21T19:13:18.781Z,99006.22
2022-09-21T19:18:02.015Z,99003.03
2022-09-21T19:22:16.618Z,99004.31
2022-09-21T19:26:57.431Z,99009.94
2022-09-21T19:31:08.106Z,99018.19
2022-09-21T19:35:16.975Z,99003.22
2022-09-21T19:39:19.838Z,99018.94
2022-09-21T19:43:31.465Z,99013.28
2022-09-21T19:47:50.940Z,99014.09
2022-09-21T19:51:56.133Z,99015.91
2022-09-21T19:56:20.745Z,99011.03
2022-09-21T20:00:24.220Z,99004.09
2022-09-21T20:04:42.636Z,99005.03
2022-09-21T20:08:56.935Z,99009.97
2022-09-21T20:13:12.572Z,99008.69
2022-09-21T20:17:22.209Z,99011.28
2022-09-21T20:21:37.396Z,99004.22
2022-09-21T20:26:00.122Z,99007.94
2022-09-21T20:30:04.725Z,99007.88
2022-09-21T20:34:06.714Z,99011.31
2022-09-21T20:38:09.555Z,99011.56
2022-09-21T20:42:25.456Z,99013.97
2022-09-21T20:46:27.571Z,99010.63
2022-09-21T20:50:30.420Z,99010.22
2022-09-21T20:54:34.022Z,99010.38
2022-09-21T20:58:36.041Z,99016.81
2022-09-21T21:02:38.010Z,99010.16
2022-09-21T21:06:40.203Z,99015.59
2022-09-21T21:10:54.557Z,99010.97
2022-09-21T21:14:58.499Z,99018.22
2022-09-21T21:19:00.923Z,99013.56
2022-09-21T21:23:07.771Z,99018.75
2022-09-21T21:27:14.782Z,99020.22
2022-09-21T21:31:20.824Z,99017.59
2022-09-21T21:35:25.995Z,99017.13
2022-09-21T21:39:28.362Z,99028.56
2022-09-21T21:43:35.789Z,99024.66
2022-09-21T21:47:40.546Z,99022.94
2022-09-21T21:51:44.711Z,99020.56
2022-09-21T21:55:47.649Z,99020.91
2022-09-21T21:59:49.821Z,99020.56
2022-09-21T22:03:54.186Z,99016.03
2022-09-21T22:07:56.505Z,99026.28
2022-09-21T22:12:01.388Z,99008.75
2022-09-21T22:16:05.467Z,99017.84
2022-09-21T22:20:08.471Z,99024.81
2022-09-21T22:24:11.067Z,99013.53
2022-09-21T22:28:14.015Z,99023.31
2022-09-21T22:32:16.423Z,99019.09
2022-09-21T22:36:20.878Z,99014.47
2022-09-21T22:40:22.955Z,99005.25
2022-09-21T22:44:25.150Z,99008.06
2022-09-21T22:48:27.599Z,99006.28
2022-09-21T22:52:29.839Z,99004.84
2022-09-21T22:56:33.489Z,99001.75
2022-09-21T23:00:35.616Z,98994.06
2022-09-21T23:04:37.640Z,98983.50
2022-09-21T23:08:42.813Z,98986.88
2022-09-21T23:12:47.559Z,98997.16
2022-09-21T23:16:50.456Z,98982.25
2022-09-21T23:20:57.609Z,98990.09
2022-09-21T23:24:59.603Z,98996.31
2022-09-21T23:29:04.670Z,99001.31
2022-09-21T23:33:07.517Z,98996.16
2022-09-21T23:37:09.690Z,98993.00
2022-09-21T23:41:16.417Z,98987.94
2022-09-21T23:45:18.495Z,98989.47
2022-09-21T23:49:20.555Z,98987.06
2022-09-21T23:53:23.444Z,98987.22
2022-09-21T23:57:25.573Z,98989.72
